createdAt,value
2023-08-14T00:01:48.848Z,15.13
2023-08-14T00:04:15.448Z,14.91
2023-08-14T00:06:41.969Z,14.96
2023-08-14T00:09:08.493Z,14.96
2023-08-14T00:11:35.026Z,14.92
2023-08-14T00:14:01.486Z,14.99
2023-08-14T00:16:28.046Z,14.89
2023-08-14T00:18:55.049Z,14.77
2023-08-14T00:21:21.752Z,14.75
2023-08-14T00:23:48.278Z,14.64
2023-08-14T00:26:14.874Z,14.60
2023-08-14T00:28:41.761Z,14.60
2023-08-14T00:31:08.254Z,14.56
2023-08-14T00:33:34.990Z,14.56
2023-08-14T00:36:01.681Z,14.53
2023-08-14T00:38:28.118Z,14.56
2023-08-14T00:40:54.536Z,14.64
2023-08-14T00:43:23.663Z,14.62
2023-08-14T00:45:53.944Z,14.72
2023-08-14T00:48:20.683Z,14.69
2023-08-14T00:50:48.139Z,14.79
2023-08-14T00:53:15.670Z,14.81
2023-08-14T00:55:42.961Z,14.69
2023-08-14T00:58:09.758Z,14.59
2023-08-14T01:00:37.206Z,14.54
2023-08-14T01:03:04.861Z,14.40
2023-08-14T01:05:32.048Z,14.35
2023-08-14T01:07:58.630Z,14.33
2023-08-14T01:10:34.241Z,14.49
2023-08-14T01:13:21.450Z,14.50
2023-08-14T01:15:54.288Z,14.52
2023-08-14T01:18:22.787Z,14.53
2023-08-14T01:21:18.537Z,14.58
2023-08-14T01:24:03.120Z,14.61
2023-08-14T01:26:30.392Z,14.47
2023-08-14T01:28:57.188Z,14.41
2023-08-14T01:31:23.577Z,14.46
2023-08-14T01:33:49.965Z,14.41
2023-08-14T01:36:29.897Z,14.41
2023-08-14T01:39:10.300Z,14.38
2023-08-14T01:42:10.125Z,14.38
2023-08-14T01:44:40.402Z,14.35
2023-08-14T01:47:09.585Z,14.32
2023-08-14T01:49:38.307Z,14.38
2023-08-14T01:52:05.745Z,14.43
2023-08-14T01:54:32.163Z,14.47
2023-08-14T01:56:58.851Z,14.48
2023-08-14T01:59:58.406Z,14.49
2023-08-14T02:02:24.939Z,14.53
2023-08-14T02:04:54.154Z,14.61
2023-08-14T02:07:20.847Z,14.74
2023-08-14T02:09:47.180Z,14.75
2023-08-14T02:12:13.779Z,14.84
2023-08-14T02:14:40.156Z,14.85
2023-08-14T02:17:06.784Z,14.90
2023-08-14T02:19:33.210Z,14.90
2023-08-14T02:21:59.757Z,14.90
2023-08-14T02:24:26.328Z,14.94
2023-08-14T02:26:52.674Z,14.96
2023-08-14T02:29:19.533Z,14.91
2023-08-14T02:31:47.945Z,14.91
2023-08-14T02:34:33.480Z,14.92
2023-08-14T02:37:00.078Z,14.85
2023-08-14T02:39:26.908Z,14.77
2023-08-14T02:41:53.296Z,14.69
2023-08-14T02:44:19.609Z,14.69
2023-08-14T02:46:46.010Z,14.68
2023-08-14T02:49:13.249Z,14.67
2023-08-14T02:51:39.603Z,14.69
2023-08-14T02:54:05.926Z,14.66
2023-08-14T02:56:32.472Z,14.53
2023-08-14T02:58:59.096Z,14.42
2023-08-14T03:01:25.555Z,14.37
2023-08-14T03:03:52.188Z,14.40
2023-08-14T03:06:18.841Z,14.39
2023-08-14T03:08:45.545Z,14.39
2023-08-14T03:11:11.905Z,14.32
2023-08-14T03:13:38.368Z,14.25
2023-08-14T03:16:05.053Z,14.27
2023-08-14T03:18:31.415Z,14.32
2023-08-14T03:20:58.036Z,14.42
2023-08-14T03:23:24.653Z,14.41
2023-08-14T03:25:53.607Z,14.45
2023-08-14T03:28:20.345Z,14.43
2023-08-14T03:30:46.737Z,14.31
2023-08-14T03:33:13.096Z,14.32
2023-08-14T03:35:39.912Z,14.32
2023-08-14T03:38:06.326Z,14.27
2023-08-14T03:40:33.213Z,14.24
2023-08-14T03:42:59.646Z,14.16
2023-08-14T03:45:26.180Z,14.09
2023-08-14T03:47:52.666Z,13.99
2023-08-14T03:50:19.362Z,13.96
2023-08-14T03:52:46.091Z,14.02
2023-08-14T03:55:12.499Z,13.97
2023-08-14T03:57:38.849Z,14.09
2023-08-14T04:00:06.045Z,14.11
2023-08-14T04:02:32.712Z,14.01
2023-08-14T04:04:59.414Z,13.96
2023-08-14T04:07:25.863Z,14.04
2023-08-14T04:09:52.298Z,14.04
2023-08-14T04:12:18.930Z,13.95
2023-08-14T04:14:45.893Z,13.99
2023-08-14T04:17:12.284Z,13.99
2023-08-14T04:19:38.708Z,13.96
2023-08-14T04:22:05.297Z,13.99
2023-08-14T04:24:31.922Z,14.02
2023-08-14T04:26:58.650Z,14.05
2023-08-14T04:29:25.494Z,14.13
2023-08-14T04:31:52.181Z,14.24
2023-08-14T04:34:18.849Z,14.20
2023-08-14T04:36:45.368Z,14.29
2023-08-14T04:39:11.845Z,14.28
2023-08-14T04:41:38.473Z,14.35
2023-08-14T04:44:05.948Z,14.36
2023-08-14T04:46:41.156Z,14.40
2023-08-14T04:49:15.694Z,14.47
2023-08-14T04:51:42.054Z,14.51
2023-08-14T04:54:08.748Z,14.63
2023-08-14T04:56:35.695Z,14.73
2023-08-14T04:59:02.095Z,14.88
2023-08-14T05:01:28.497Z,14.99
2023-08-14T05:03:55.160Z,15.19
2023-08-14T05:06:21.577Z,15.20
2023-08-14T05:08:47.941Z,15.26
2023-08-14T05:11:14.325Z,15.36
2023-08-14T05:13:45.369Z,15.56
2023-08-14T05:16:12.187Z,15.74
2023-08-14T05:18:38.780Z,16.01
2023-08-14T05:21:05.527Z,16.13
2023-08-14T05:23:32.207Z,16.39
2023-08-14T05:25:58.723Z,16.58
2023-08-14T05:28:25.388Z,16.64
2023-08-14T05:30:51.937Z,16.67
2023-08-14T05:33:18.297Z,16.88
2023-08-14T05:35:44.699Z,16.95
2023-08-14T05:38:11.056Z,16.91
2023-08-14T05:40:37.411Z,17.06
2023-08-14T05:43:08.358Z,17.33
2023-08-14T05:45:39.618Z,17.40
2023-08-14T05:48:07.565Z,17.63
2023-08-14T05:50:35.365Z,17.85
2023-08-14T05:53:06.026Z,18.01
2023-08-14T05:55:35.557Z,18.21
2023-08-14T05:58:03.536Z,18.39
2023-08-14T06:00:30.984Z,18.64
2023-08-14T06:02:57.775Z,18.59
2023-08-14T06:05:24.638Z,18.86
2023-08-14T06:07:53.068Z,18.75
2023-08-14T06:10:20.343Z,18.96
2023-08-14T06:12:47.416Z,19.26
2023-08-14T06:15:14.029Z,19.49
2023-08-14T06:17:40.847Z,19.33
2023-08-14T06:20:07.724Z,19.18
2023-08-14T06:22:44.901Z,19.34
2023-08-14T06:25:15.071Z,19.39
2023-08-14T06:27:42.357Z,19.30
2023-08-14T06:30:10.597Z,19.40
2023-08-14T06:32:37.790Z,19.51
2023-08-14T06:35:04.971Z,19.81
2023-08-14T06:37:32.220Z,19.85
2023-08-14T06:39:58.692Z,19.94
2023-08-14T06:42:25.219Z,20.07
2023-08-14T06:44:51.624Z,19.97
2023-08-14T06:47:17.992Z,19.86
2023-08-14T06:49:44.519Z,19.66
2023-08-14T06:52:11.156Z,19.85
2023-08-14T06:54:37.576Z,20.19
2023-08-14T06:57:04.256Z,20.03
2023-08-14T06:59:31.167Z,20.19
2023-08-14T07:01:58.173Z,20.33
2023-08-14T07:04:24.547Z,20.41
2023-08-14T07:06:50.937Z,20.35
2023-08-14T07:09:17.751Z,20.42
2023-08-14T07:11:44.791Z,20.52
2023-08-14T07:14:11.225Z,20.78
2023-08-14T07:16:37.878Z,20.88
2023-08-14T07:19:04.966Z,20.81
2023-08-14T07:21:31.566Z,20.84
2023-08-14T07:23:57.921Z,21.17
2023-08-14T07:26:24.266Z,21.27
2023-08-14T07:28:50.835Z,21.37
2023-08-14T07:31:17.289Z,21.65
2023-08-14T07:33:43.758Z,21.77
2023-08-14T07:36:10.166Z,21.47
2023-08-14T07:38:36.633Z,21.55
2023-08-14T07:41:03.131Z,21.84
2023-08-14T07:43:29.527Z,21.66
2023-08-14T07:45:56.164Z,21.59
2023-08-14T07:48:22.830Z,21.53
2023-08-14T07:50:55.732Z,21.63
2023-08-14T07:53:22.421Z,21.58
2023-08-14T07:55:51.662Z,21.58
2023-08-14T07:58:19.719Z,21.63
2023-08-14T08:00:46.717Z,21.85
2023-08-14T08:03:13.451Z,22.04
2023-08-14T08:05:39.976Z,21.84
2023-08-14T08:08:06.565Z,21.97
2023-08-14T08:10:33.736Z,22.06
2023-08-14T08:13:00.398Z,22.04
2023-08-14T08:15:26.877Z,21.90
2023-08-14T08:17:53.675Z,22.15
2023-08-14T08:20:20.337Z,22.33
2023-08-14T08:22:46.943Z,22.42
2023-08-14T08:25:13.357Z,22.58
2023-08-14T08:27:39.919Z,22.37
2023-08-14T08:30:06.939Z,22.33
2023-08-14T08:32:33.434Z,22.36
2023-08-14T08:35:00.152Z,22.47
2023-08-14T08:37:26.836Z,22.23
2023-08-14T08:39:53.954Z,22.20
2023-08-14T08:42:21.266Z,22.23
2023-08-14T08:44:50.479Z,22.29
2023-08-14T08:47:21.903Z,22.36
2023-08-14T08:49:48.698Z,22.42
2023-08-14T08:52:16.116Z,22.39
2023-08-14T08:54:43.209Z,22.62
2023-08-14T08:57:09.995Z,22.79
2023-08-14T08:59:40.610Z,22.89
2023-08-14T09:02:09.327Z,23.09
2023-08-14T09:04:36.125Z,23.16
2023-08-14T09:07:02.733Z,23.15
2023-08-14T09:11:55.692Z,23.47
2023-08-14T09:14:23.382Z,23.46
2023-08-14T09:16:54.414Z,23.47
2023-08-14T09:19:21.057Z,23.55
2023-08-14T09:21:47.867Z,23.45
2023-08-14T09:24:15.950Z,23.63
2023-08-14T09:26:46.737Z,23.61
2023-08-14T09:29:14.269Z,23.77
2023-08-14T09:31:44.785Z,23.44
2023-08-14T09:34:20.249Z,23.56
2023-08-14T09:36:48.899Z,23.67
2023-08-14T09:39:16.917Z,23.71
2023-08-14T09:41:48.258Z,23.51
2023-08-14T09:44:15.070Z,23.46
2023-08-14T09:46:41.815Z,23.35
2023-08-14T09:49:09.546Z,23.46
2023-08-14T09:51:35.946Z,23.60
2023-08-14T09:54:03.632Z,23.82
2023-08-14T09:56:30.505Z,23.69
2023-08-14T09:58:56.928Z,23.66
2023-08-14T10:01:24.053Z,23.61
2023-08-14T10:03:54.048Z,23.60
2023-08-14T10:06:26.917Z,23.62
2023-08-14T10:08:57.340Z,23.64
2023-08-14T10:11:26.979Z,23.58
2023-08-14T10:13:57.044Z,23.49
2023-08-14T10:16:27.787Z,23.57
2023-08-14T10:18:58.794Z,23.75
2023-08-14T10:21:29.869Z,23.76
2023-08-14T10:23:58.024Z,23.65
2023-08-14T10:26:27.632Z,23.69
2023-08-14T10:28:57.445Z,23.77
2023-08-14T10:31:25.158Z,23.62
2023-08-14T10:33:52.412Z,23.62
2023-08-14T10:36:20.637Z,23.64
2023-08-14T10:38:48.206Z,23.82
2023-08-14T10:41:18.844Z,23.93
2023-08-14T10:43:51.633Z,24.03
2023-08-14T10:46:18.650Z,23.88
2023-08-14T10:48:49.716Z,24.23
2023-08-14T10:51:21.568Z,24.22
2023-08-14T10:53:48.366Z,24.25
2023-08-14T10:56:14.955Z,24.27
2023-08-14T10:58:48.638Z,24.07
2023-08-14T11:01:15.980Z,23.87
2023-08-14T11:04:05.705Z,23.87
2023-08-14T11:06:58.373Z,24.02
2023-08-14T11:09:27.309Z,24.06
2023-08-14T11:11:56.515Z,24.24
2023-08-14T11:14:23.220Z,24.43
2023-08-14T11:16:50.967Z,24.70
2023-08-14T11:19:20.021Z,24.34
2023-08-14T11:21:48.223Z,24.42
2023-08-14T11:24:14.964Z,24.52
2023-08-14T11:26:41.416Z,24.52
2023-08-14T11:29:07.895Z,24.61
2023-08-14T11:31:41.792Z,24.71
2023-08-14T11:34:14.981Z,24.68
2023-08-14T11:39:29.933Z,24.78
2023-08-14T11:41:56.496Z,24.59
2023-08-14T11:44:23.541Z,24.64
2023-08-14T11:46:50.467Z,24.66
2023-08-14T11:49:17.896Z,24.47
2023-08-14T11:51:45.970Z,24.59
2023-08-14T11:54:14.024Z,24.37
2023-08-14T11:56:40.500Z,24.50
2023-08-14T11:59:08.313Z,24.38
2023-08-14T12:01:36.632Z,24.67
2023-08-14T12:04:03.787Z,25.10
2023-08-14T12:06:31.417Z,24.76
2023-08-14T12:08:57.795Z,24.75
2023-08-14T12:11:24.427Z,24.98
2023-08-14T12:13:52.380Z,25.19
2023-08-14T12:16:22.413Z,25.39
2023-08-14T12:18:50.186Z,25.30
2023-08-14T12:21:17.266Z,25.28
2023-08-14T12:23:48.404Z,25.45
2023-08-14T12:26:16.450Z,25.54
2023-08-14T12:28:44.147Z,25.19
2023-08-14T12:31:12.331Z,25.21
2023-08-14T12:33:46.935Z,25.19
2023-08-14T12:36:15.434Z,25.28
2023-08-14T12:38:42.044Z,25.16
2023-08-14T12:41:08.680Z,25.30
2023-08-14T12:43:40.116Z,25.23
2023-08-14T12:46:10.173Z,25.53
2023-08-14T12:48:36.858Z,25.62
2023-08-14T12:51:04.954Z,25.73
2023-08-14T12:53:33.280Z,25.80
2023-08-14T12:58:29.200Z,25.27
2023-08-14T13:00:55.927Z,25.33
2023-08-14T13:03:34.947Z,25.48
2023-08-14T13:06:03.727Z,25.39
2023-08-14T13:08:30.132Z,25.66
2023-08-14T13:10:56.743Z,25.63
2023-08-14T13:13:25.470Z,25.58
2023-08-14T13:15:52.228Z,25.74
2023-08-14T13:18:18.863Z,25.56
2023-08-14T13:20:45.290Z,25.29
2023-08-14T13:23:11.718Z,25.52
2023-08-14T13:25:42.312Z,25.56
2023-08-14T13:28:09.321Z,25.68
2023-08-14T13:30:35.703Z,25.54
2023-08-14T13:33:02.186Z,25.58
2023-08-14T13:35:28.886Z,25.80
2023-08-14T13:37:55.361Z,26.02
2023-08-14T13:40:21.957Z,26.30
2023-08-14T13:42:48.498Z,26.26
2023-08-14T13:45:18.650Z,26.39
2023-08-14T13:47:54.192Z,26.46
2023-08-14T13:50:32.578Z,26.63
2023-08-14T13:53:00.742Z,26.90
2023-08-14T13:55:30.972Z,26.47
2023-08-14T13:57:57.815Z,26.39
2023-08-14T14:00:28.573Z,26.01
2023-08-14T14:02:56.657Z,26.06
2023-08-14T14:05:23.495Z,26.17
2023-08-14T14:07:54.665Z,26.42
2023-08-14T14:10:23.029Z,26.22
2023-08-14T14:13:01.298Z,26.13
2023-08-14T14:15:29.379Z,26.24
2023-08-14T14:17:56.157Z,26.40
2023-08-14T14:20:22.848Z,26.55
2023-08-14T14:22:49.564Z,26.56
2023-08-14T14:25:16.389Z,26.28
2023-08-14T14:27:42.952Z,26.14
2023-08-14T14:30:09.941Z,26.26
2023-08-14T14:32:37.079Z,26.34
2023-08-14T14:35:04.269Z,26.12
2023-08-14T14:37:31.491Z,26.02
2023-08-14T14:39:58.110Z,26.09
2023-08-14T14:42:27.744Z,26.28
2023-08-14T14:44:54.797Z,26.47
2023-08-14T14:47:24.032Z,26.39
2023-08-14T14:49:50.960Z,26.69
2023-08-14T14:52:17.348Z,26.62
2023-08-14T14:54:43.717Z,26.69
2023-08-14T14:57:10.381Z,26.88
2023-08-14T14:59:37.065Z,27.12
2023-08-14T15:02:11.924Z,27.25
2023-08-14T15:04:42.614Z,27.53
2023-08-14T15:07:09.256Z,27.57
2023-08-14T15:09:35.631Z,27.59
2023-08-14T15:12:02.092Z,27.30
2023-08-14T15:14:28.570Z,26.97
2023-08-14T15:16:55.206Z,26.81
2023-08-14T15:19:21.863Z,26.68
2023-08-14T15:21:48.291Z,26.50
2023-08-14T15:24:14.720Z,26.54
2023-08-14T15:26:41.133Z,26.57
2023-08-14T15:29:07.623Z,26.29
2023-08-14T15:31:34.246Z,26.42
2023-08-14T15:34:00.921Z,26.35
2023-08-14T15:36:27.532Z,26.17
2023-08-14T15:38:54.395Z,26.07
2023-08-14T15:41:22.286Z,25.99
2023-08-14T15:43:48.716Z,25.85
2023-08-14T15:46:15.065Z,25.99
2023-08-14T15:48:41.699Z,25.87
2023-08-14T15:51:08.431Z,25.78
2023-08-14T15:53:34.988Z,26.04
2023-08-14T15:56:01.375Z,26.14
2023-08-14T15:58:27.793Z,26.26
2023-08-14T16:00:54.329Z,26.29
2023-08-14T16:03:20.836Z,26.33
2023-08-14T16:05:47.556Z,26.36
2023-08-14T16:08:14.196Z,26.46
2023-08-14T16:10:40.972Z,26.36
2023-08-14T16:13:07.615Z,26.31
2023-08-14T16:15:34.167Z,26.41
2023-08-14T16:18:00.719Z,26.22
2023-08-14T16:20:27.351Z,26.16
2023-08-14T16:22:53.685Z,26.18
2023-08-14T16:25:20.273Z,26.32
2023-08-14T16:27:47.013Z,26.34
2023-08-14T16:30:13.873Z,26.22
2023-08-14T16:32:40.418Z,26.36
2023-08-14T16:35:07.957Z,26.44
2023-08-14T16:37:34.996Z,26.27
2023-08-14T16:40:01.446Z,26.30
2023-08-14T16:42:28.072Z,26.36
2023-08-14T16:44:54.741Z,26.30
2023-08-14T16:47:21.828Z,26.21
2023-08-14T16:49:48.501Z,26.20
2023-08-14T16:52:14.935Z,26.20
2023-08-14T16:54:43.004Z,26.35
2023-08-14T16:57:09.511Z,26.48
2023-08-14T16:59:35.932Z,26.47
2023-08-14T17:02:02.870Z,26.35
2023-08-14T17:04:29.907Z,26.41
2023-08-14T17:06:56.357Z,26.39
2023-08-14T17:09:22.981Z,26.34
2023-08-14T17:11:49.380Z,26.55
2023-08-14T17:14:17.314Z,26.44
2023-08-14T17:16:43.734Z,26.47
2023-08-14T17:19:10.401Z,26.55
2023-08-14T17:21:37.513Z,26.31
2023-08-14T17:24:04.454Z,26.26
2023-08-14T17:26:31.068Z,26.30
2023-08-14T17:28:57.440Z,26.28
2023-08-14T17:31:24.142Z,26.41
2023-08-14T17:33:51.917Z,26.29
2023-08-14T17:36:19.109Z,26.24
2023-08-14T17:38:45.450Z,26.14
2023-08-14T17:41:11.858Z,25.98
2023-08-14T17:43:38.184Z,25.97
2023-08-14T17:46:04.540Z,25.90
2023-08-14T17:48:31.285Z,25.82
2023-08-14T17:50:57.885Z,25.65
2023-08-14T17:53:25.612Z,25.48
2023-08-14T17:55:52.109Z,25.41
2023-08-14T17:58:19.836Z,25.27
2023-08-14T18:00:51.031Z,25.20
2023-08-14T18:03:18.052Z,25.13
2023-08-14T18:05:54.576Z,25.05
2023-08-14T18:08:21.080Z,24.90
2023-08-14T18:10:47.769Z,24.76
2023-08-14T18:13:14.195Z,24.72
2023-08-14T18:15:41.070Z,24.62
2023-08-14T18:18:07.802Z,24.55
2023-08-14T18:20:34.465Z,24.50
2023-08-14T18:23:01.102Z,24.47
2023-08-14T18:25:27.825Z,24.49
2023-08-14T18:27:54.201Z,24.36
2023-08-14T18:30:21.062Z,24.24
2023-08-14T18:32:47.537Z,24.16
2023-08-14T18:35:14.319Z,24.08
2023-08-14T18:37:40.899Z,23.93
2023-08-14T18:40:08.325Z,23.79
2023-08-14T18:42:35.634Z,23.62
2023-08-14T18:45:02.203Z,23.54
2023-08-14T18:47:28.787Z,23.34
2023-08-14T18:49:55.222Z,23.31
2023-08-14T18:52:22.021Z,23.16
2023-08-14T18:54:48.726Z,22.78
2023-08-14T18:57:15.392Z,22.53
2023-08-14T18:59:47.368Z,22.38
2023-08-14T19:02:13.836Z,22.40
2023-08-14T19:04:43.044Z,22.47
2023-08-14T19:07:10.443Z,22.44
2023-08-14T19:09:37.018Z,22.43
2023-08-14T19:12:07.194Z,22.35
2023-08-14T19:14:34.365Z,22.26
2023-08-14T19:17:01.196Z,22.13
2023-08-14T19:19:27.874Z,21.95
2023-08-14T19:21:54.224Z,21.84
2023-08-14T19:24:21.174Z,21.59
2023-08-14T19:26:47.650Z,21.46
2023-08-14T19:29:14.148Z,21.47
2023-08-14T19:31:40.872Z,21.56
2023-08-14T19:34:07.279Z,21.66
2023-08-14T19:36:34.144Z,21.60
2023-08-14T19:39:01.171Z,21.23
2023-08-14T19:41:27.756Z,21.01
2023-08-14T19:43:54.622Z,21.01
2023-08-14T19:46:21.300Z,21.00
2023-08-14T19:48:48.171Z,21.05
2023-08-14T19:51:14.888Z,21.03
2023-08-14T19:53:41.501Z,20.99
2023-08-14T19:56:08.508Z,21.03
2023-08-14T19:58:34.956Z,21.13
2023-08-14T20:01:01.984Z,21.15
2023-08-14T20:03:28.806Z,21.13
2023-08-14T20:05:55.334Z,21.06
2023-08-14T20:08:22.066Z,20.98
2023-08-14T20:10:48.734Z,20.86
2023-08-14T20:13:15.264Z,20.90
2023-08-14T20:15:46.566Z,20.82
2023-08-14T20:18:14.968Z,20.77
2023-08-14T20:20:42.875Z,20.73
2023-08-14T20:23:10.606Z,20.79
2023-08-14T20:25:38.117Z,20.33
2023-08-14T20:28:05.391Z,20.06
2023-08-14T20:30:32.069Z,19.93
2023-08-14T20:32:58.532Z,19.97
2023-08-14T20:35:24.869Z,19.93
2023-08-14T20:37:51.488Z,19.77
2023-08-14T20:40:18.029Z,19.88
2023-08-14T20:42:44.887Z,19.97
2023-08-14T20:45:11.403Z,19.94
2023-08-14T20:47:38.138Z,20.00
2023-08-14T20:50:04.720Z,19.93
2023-08-14T20:52:31.325Z,19.85
2023-08-14T20:54:57.961Z,19.69
2023-08-14T20:57:24.389Z,19.73
2023-08-14T20:59:51.050Z,19.82
2023-08-14T21:02:17.627Z,19.86
2023-08-14T21:04:44.250Z,20.00
2023-08-14T21:07:10.915Z,19.95
2023-08-14T21:09:37.337Z,19.86
2023-08-14T21:12:03.932Z,19.80
2023-08-14T21:14:30.260Z,19.87
2023-08-14T21:16:56.628Z,19.91
2023-08-14T21:19:23.491Z,20.03
2023-08-14T21:21:50.120Z,19.95
2023-08-14T21:24:16.701Z,19.88
2023-08-14T21:26:43.314Z,19.96
2023-08-14T21:29:09.664Z,20.00
2023-08-14T21:31:36.397Z,19.96
2023-08-14T21:34:02.872Z,19.66
2023-08-14T21:36:29.346Z,19.37
2023-08-14T21:38:55.735Z,19.38
2023-08-14T21:41:22.120Z,19.23
2023-08-14T21:43:48.513Z,19.29
2023-08-14T21:46:15.050Z,19.31
2023-08-14T21:48:41.476Z,19.24
2023-08-14T21:51:08.180Z,19.21
2023-08-14T21:53:34.756Z,19.32
2023-08-14T21:56:01.352Z,19.36
2023-08-14T21:58:27.998Z,19.33
2023-08-14T22:00:54.443Z,19.29
2023-08-14T22:03:20.885Z,19.09
2023-08-14T22:05:47.568Z,19.12
2023-08-14T22:08:13.999Z,19.15
2023-08-14T22:10:40.356Z,19.10
2023-08-14T22:13:06.685Z,19.19
2023-08-14T22:15:44.742Z,19.12
2023-08-14T22:18:13.769Z,18.90
2023-08-14T22:20:41.076Z,18.94
2023-08-14T22:23:07.788Z,18.89
2023-08-14T22:25:34.173Z,18.84
2023-08-14T22:28:00.526Z,18.84
2023-08-14T22:30:27.268Z,18.78
2023-08-14T22:32:53.939Z,18.78
2023-08-14T22:35:20.359Z,18.76
2023-08-14T22:37:46.753Z,18.75
2023-08-14T22:40:13.160Z,18.88
2023-08-14T22:42:39.724Z,18.87
2023-08-14T22:45:07.124Z,18.72
2023-08-14T22:47:33.733Z,18.66
2023-08-14T22:50:00.425Z,18.76
2023-08-14T22:52:27.194Z,18.72
2023-08-14T22:54:53.645Z,18.67
2023-08-14T22:57:20.359Z,18.57
2023-08-14T22:59:46.969Z,18.42
2023-08-14T23:02:13.295Z,18.36
2023-08-14T23:04:39.694Z,18.37
2023-08-14T23:07:06.333Z,18.32
2023-08-14T23:09:32.690Z,18.25
2023-08-14T23:11:59.038Z,18.33
2023-08-14T23:14:25.639Z,18.21
2023-08-14T23:16:52.059Z,18.20
2023-08-14T23:19:18.763Z,18.19
2023-08-14T23:21:45.131Z,18.17
2023-08-14T23:24:11.589Z,18.13
2023-08-14T23:26:37.935Z,18.14
2023-08-14T23:29:04.525Z,18.16
2023-08-14T23:31:31.120Z,18.10
2023-08-14T23:33:57.434Z,18.18
2023-08-14T23:36:23.973Z,18.15
2023-08-14T23:38:50.398Z,18.10
2023-08-14T23:41:16.770Z,18.06
2023-08-14T23:43:43.216Z,18.05
2023-08-14T23:46:09.608Z,18.10
2023-08-14T23:48:36.162Z,18.18
2023-08-14T23:51:02.524Z,18.26
2023-08-14T23:53:29.179Z,18.20
2023-08-14T23:55:55.558Z,18.13
2023-08-14T23:58:21.912Z,18.16
